<?xml version="1.0" encoding="UTF-8" standalone="no" ?>
<gpx xmlns="http://www.topografix.com/GPX/1/1" xmlns:xsi="http://www.w3.org/2001/XMLSchema-instance" xsi:schemaLocation="http://www.topografix.com/GPX/1/1 http://www.topografix.com/GPX/1/1/gpx.xsd" version="1.1" creator="VisuGPX - https://www.visugpx.com">
  <metadata>
    <name>Torfou_Bataille_12-21km</name>
    <desc><![CDATA[gnerando idor:8208323_8287903_8309224]]></desc>
  </metadata>
  <trk>
    <name><![CDATA[Torfou_boucleTiffaugesColonneBataille_20.5km-8309224]]></name>
    <extensions>
      <line xmlns="http://www.topografix.com/GPX/gpx_style/0/2">
        <color>00FF00</color>
        <width>4</width>
      </line>
    </extensions>
    <trkseg>
      <trkpt lat="47.03728" lon="-1.11688">
        <ele>102</ele>
        <time>2023-11-14T05:29:15Z</time>
      </trkpt>
      <trkpt lat="47.03754" lon="-1.11727">
        <ele>102</ele>
        <time>2023-11-14T05:30:05Z</time>
      </trkpt>
      <trkpt lat="47.03764" lon="-1.11749">
        <ele>101</ele>
        <time>2023-11-14T05:30:29Z</time>
      </trkpt>
      <trkpt lat="47.0376" lon="-1.11775">
        <ele>101</ele>
        <time>2023-11-14T05:30:53Z</time>
      </trkpt>
      <trkpt lat="47.03772" lon="-1.11799">
        <ele>100</ele>
        <time>2023-11-14T05:31:20Z</time>
      </trkpt>
      <trkpt lat="47.03769" lon="-1.11827">
        <ele>100</ele>
        <time>2023-11-14T05:31:46Z</time>
      </trkpt>
      <trkpt lat="47.03773" lon="-1.11854">
        <ele>99</ele>
        <time>2023-11-14T05:32:11Z</time>
      </trkpt>
      <trkpt lat="47.03804" lon="-1.11886">
        <ele>96</ele>
        <time>2023-11-14T05:33:01Z</time>
      </trkpt>
      <trkpt lat="47.03816" lon="-1.11907">
        <ele>95</ele>
        <time>2023-11-14T05:33:26Z</time>
      </trkpt>
      <trkpt lat="47.03814" lon="-1.11933">
        <ele>94</ele>
        <time>2023-11-14T05:33:50Z</time>
      </trkpt>
      <trkpt lat="47.0383" lon="-1.11948">
        <ele>91</ele>
        <time>2023-11-14T05:34:16Z</time>
      </trkpt>
      <trkpt lat="47.03826" lon="-1.11975">
        <ele>90</ele>
        <time>2023-11-14T05:34:41Z</time>
      </trkpt>
      <trkpt lat="47.03825" lon="-1.12031">
        <ele>88</ele>
        <time>2023-11-14T05:35:32Z</time>
      </trkpt>
      <trkpt lat="47.03822" lon="-1.12058">
        <ele>87</ele>
        <time>2023-11-14T05:35:56Z</time>
      </trkpt>
      <trkpt lat="47.0381" lon="-1.12108">
        <ele>87</ele>
        <time>2023-11-14T05:36:45Z</time>
      </trkpt>
      <trkpt lat="47.03799" lon="-1.12087">
        <ele>89</ele>
        <time>2023-11-14T05:37:09Z</time>
      </trkpt>
      <trkpt lat="47.03782" lon="-1.12074">
        <ele>92</ele>
        <time>2023-11-14T05:37:34Z</time>
      </trkpt>
      <trkpt lat="47.03765" lon="-1.12065">
        <ele>95</ele>
        <time>2023-11-14T05:37:58Z</time>
      </trkpt>
      <trkpt lat="47.03746" lon="-1.12061">
        <ele>97</ele>
        <time>2023-11-14T05:38:24Z</time>
      </trkpt>
      <trkpt lat="47.0371" lon="-1.12065">
        <ele>99</ele>
        <time>2023-11-14T05:39:12Z</time>
      </trkpt>
      <trkpt lat="47.03691" lon="-1.12064">
        <ele>100</ele>
        <time>2023-11-14T05:39:38Z</time>
      </trkpt>
      <trkpt lat="47.03655" lon="-1.12076">
        <ele>101</ele>
        <time>2023-11-14T05:40:27Z</time>
      </trkpt>
      <trkpt lat="47.03619" lon="-1.12092">
        <ele>100</ele>
        <time>2023-11-14T05:41:17Z</time>
      </trkpt>
      <trkpt lat="47.036" lon="-1.12093">
        <ele>100</ele>
        <time>2023-11-14T05:41:42Z</time>
      </trkpt>
      <trkpt lat="47.03583" lon="-1.12104">
        <ele>100</ele>
        <time>2023-11-14T05:42:07Z</time>
      </trkpt>
      <trkpt lat="47.03544" lon="-1.12161">
        <ele>100</ele>
        <time>2023-11-14T05:43:21Z</time>
      </trkpt>
      <trkpt lat="47.03528" lon="-1.12176">
        <ele>100</ele>
        <time>2023-11-14T05:43:46Z</time>
      </trkpt>
      <trkpt lat="47.03446" lon="-1.12239">
        <ele>99</ele>
        <time>2023-11-14T05:45:50Z</time>
      </trkpt>
      <trkpt lat="47.03397" lon="-1.12273">
        <ele>97</ele>
        <time>2023-11-14T05:47:02Z</time>
      </trkpt>
      <trkpt lat="47.03362" lon="-1.12292">
        <ele>96</ele>
        <time>2023-11-14T05:47:52Z</time>
      </trkpt>
      <trkpt lat="47.03263" lon="-1.12369">
        <ele>93</ele>
        <time>2023-11-14T05:50:21Z</time>
      </trkpt>
      <trkpt lat="47.03245" lon="-1.12377">
        <ele>93</ele>
        <time>2023-11-14T05:50:46Z</time>
      </trkpt>
      <trkpt lat="47.03227" lon="-1.1237">
        <ele>92</ele>
        <time>2023-11-14T05:51:11Z</time>
      </trkpt>
      <trkpt lat="47.03202" lon="-1.12411">
        <ele>92</ele>
        <time>2023-11-14T05:52:01Z</time>
      </trkpt>
      <trkpt lat="47.03208" lon="-1.12436">
        <ele>92</ele>
        <time>2023-11-14T05:52:25Z</time>
      </trkpt>
      <trkpt lat="47.03209" lon="-1.12463">
        <ele>92</ele>
        <time>2023-11-14T05:52:50Z</time>
      </trkpt>
      <trkpt lat="47.03197" lon="-1.12514">
        <ele>92</ele>
        <time>2023-11-14T05:53:39Z</time>
      </trkpt>
      <trkpt lat="47.03193" lon="-1.12541">
        <ele>92</ele>
        <time>2023-11-14T05:54:04Z</time>
      </trkpt>
      <trkpt lat="47.03178" lon="-1.12593">
        <ele>91</ele>
        <time>2023-11-14T05:54:55Z</time>
      </trkpt>
      <trkpt lat="47.0314" lon="-1.12746">
        <ele>90</ele>
        <time>2023-11-14T05:57:24Z</time>
      </trkpt>
      <trkpt lat="47.03126" lon="-1.12825">
        <ele>90</ele>
        <time>2023-11-14T05:58:38Z</time>
      </trkpt>
      <trkpt lat="47.03117" lon="-1.12849">
        <ele>90</ele>
        <time>2023-11-14T05:59:03Z</time>
      </trkpt>
      <trkpt lat="47.03105" lon="-1.1287">
        <ele>89</ele>
        <time>2023-11-14T05:59:28Z</time>
      </trkpt>
      <trkpt lat="47.03066" lon="-1.12927">
        <ele>88</ele>
        <time>2023-11-14T06:00:41Z</time>
      </trkpt>
      <trkpt lat="47.03035" lon="-1.12995">
        <ele>86</ele>
        <time>2023-11-14T06:01:56Z</time>
      </trkpt>
      <trkpt lat="47.03" lon="-1.13091">
        <ele>86</ele>
        <time>2023-11-14T06:03:35Z</time>
      </trkpt>
      <trkpt lat="47.02985" lon="-1.13141">
        <ele>85</ele>
        <time>2023-11-14T06:04:24Z</time>
      </trkpt>
      <trkpt lat="47.02914" lon="-1.13332">
        <ele>83</ele>
        <time>2023-11-14T06:07:42Z</time>
      </trkpt>
      <trkpt lat="47.02906" lon="-1.13357">
        <ele>83</ele>
        <time>2023-11-14T06:08:07Z</time>
      </trkpt>
      <trkpt lat="47.02869" lon="-1.13509">
        <ele>81</ele>
        <time>2023-11-14T06:10:34Z</time>
      </trkpt>
      <trkpt lat="47.02864" lon="-1.13563">
        <ele>80</ele>
        <time>2023-11-14T06:11:24Z</time>
      </trkpt>
      <trkpt lat="47.02847" lon="-1.13642">
        <ele>76</ele>
        <time>2023-11-14T06:12:39Z</time>
      </trkpt>
      <trkpt lat="47.02831" lon="-1.13655">
        <ele>75</ele>
        <time>2023-11-14T06:13:03Z</time>
      </trkpt>
      <trkpt lat="47.02814" lon="-1.13662">
        <ele>74</ele>
        <time>2023-11-14T06:13:27Z</time>
      </trkpt>
      <trkpt lat="47.02795" lon="-1.13666">
        <ele>73</ele>
        <time>2023-11-14T06:13:53Z</time>
      </trkpt>
      <trkpt lat="47.02777" lon="-1.13657">
        <ele>73</ele>
        <time>2023-11-14T06:14:18Z</time>
      </trkpt>
      <trkpt lat="47.02744" lon="-1.13632">
        <ele>75</ele>
        <time>2023-11-14T06:15:08Z</time>
      </trkpt>
      <trkpt lat="47.02726" lon="-1.13631">
        <ele>75</ele>
        <time>2023-11-14T06:15:32Z</time>
      </trkpt>
      <trkpt lat="47.02713" lon="-1.13652">
        <ele>72</ele>
        <time>2023-11-14T06:15:57Z</time>
      </trkpt>
      <trkpt lat="47.02698" lon="-1.13669">
        <ele>70</ele>
        <time>2023-11-14T06:16:23Z</time>
      </trkpt>
      <trkpt lat="47.02681" lon="-1.13677">
        <ele>68</ele>
        <time>2023-11-14T06:16:47Z</time>
      </trkpt>
      <trkpt lat="47.02662" lon="-1.13679">
        <ele>67</ele>
        <time>2023-11-14T06:17:12Z</time>
      </trkpt>
      <trkpt lat="47.02645" lon="-1.13689">
        <ele>64</ele>
        <time>2023-11-14T06:17:36Z</time>
      </trkpt>
      <trkpt lat="47.02616" lon="-1.13723">
        <ele>56</ele>
        <time>2023-11-14T06:18:26Z</time>
      </trkpt>
      <trkpt lat="47.026" lon="-1.13738">
        <ele>53</ele>
        <time>2023-11-14T06:18:51Z</time>
      </trkpt>
      <trkpt lat="47.02584" lon="-1.13725">
        <ele>52</ele>
        <time>2023-11-14T06:19:16Z</time>
      </trkpt>
      <trkpt lat="47.02576" lon="-1.137">
        <ele>53</ele>
        <time>2023-11-14T06:19:41Z</time>
      </trkpt>
      <trkpt lat="47.02565" lon="-1.13648">
        <ele>57</ele>
        <time>2023-11-14T06:20:30Z</time>
      </trkpt>
      <trkpt lat="47.02553" lon="-1.13627">
        <ele>57</ele>
        <time>2023-11-14T06:20:55Z</time>
      </trkpt>
      <trkpt lat="47.02539" lon="-1.13609">
        <ele>57</ele>
        <time>2023-11-14T06:21:20Z</time>
      </trkpt>
      <trkpt lat="47.02516" lon="-1.13567">
        <ele>56</ele>
        <time>2023-11-14T06:22:09Z</time>
      </trkpt>
      <trkpt lat="47.02503" lon="-1.13548">
        <ele>54</ele>
        <time>2023-11-14T06:22:34Z</time>
      </trkpt>
      <trkpt lat="47.02487" lon="-1.13535">
        <ele>52</ele>
        <time>2023-11-14T06:22:58Z</time>
      </trkpt>
      <trkpt lat="47.02478" lon="-1.13511">
        <ele>52</ele>
        <time>2023-11-14T06:23:23Z</time>
      </trkpt>
      <trkpt lat="47.0247" lon="-1.13458">
        <ele>55</ele>
        <time>2023-11-14T06:24:12Z</time>
      </trkpt>
      <trkpt lat="47.02459" lon="-1.13435">
        <ele>55</ele>
        <time>2023-11-14T06:24:38Z</time>
      </trkpt>
      <trkpt lat="47.02446" lon="-1.13416">
        <ele>54</ele>
        <time>2023-11-14T06:25:02Z</time>
      </trkpt>
      <trkpt lat="47.02429" lon="-1.13338">
        <ele>57</ele>
        <time>2023-11-14T06:26:17Z</time>
      </trkpt>
      <trkpt lat="47.02418" lon="-1.13316">
        <ele>56</ele>
        <time>2023-11-14T06:26:42Z</time>
      </trkpt>
      <trkpt lat="47.02402" lon="-1.13302">
        <ele>55</ele>
        <time>2023-11-14T06:27:07Z</time>
      </trkpt>
      <trkpt lat="47.02387" lon="-1.13284">
        <ele>54</ele>
        <time>2023-11-14T06:27:32Z</time>
      </trkpt>
      <trkpt lat="47.02362" lon="-1.13247">
        <ele>53</ele>
        <time>2023-11-14T06:28:20Z</time>
      </trkpt>
      <trkpt lat="47.02352" lon="-1.13223">
        <ele>53</ele>
        <time>2023-11-14T06:28:45Z</time>
      </trkpt>
      <trkpt lat="47.02358" lon="-1.1317">
        <ele>57</ele>
        <time>2023-11-14T06:29:34Z</time>
      </trkpt>
      <trkpt lat="47.02365" lon="-1.13145">
        <ele>58</ele>
        <time>2023-11-14T06:29:59Z</time>
      </trkpt>
      <trkpt lat="47.02368" lon="-1.1309">
        <ele>57</ele>
        <time>2023-11-14T06:30:49Z</time>
      </trkpt>
      <trkpt lat="47.02373" lon="-1.13063">
        <ele>56</ele>
        <time>2023-11-14T06:31:14Z</time>
      </trkpt>
      <trkpt lat="47.024" lon="-1.12991">
        <ele>54</ele>
        <time>2023-11-14T06:32:29Z</time>
      </trkpt>
      <trkpt lat="47.02407" lon="-1.12966">
        <ele>53</ele>
        <time>2023-11-14T06:32:54Z</time>
      </trkpt>
      <trkpt lat="47.02409" lon="-1.12939">
        <ele>52</ele>
        <time>2023-11-14T06:33:19Z</time>
      </trkpt>
      <trkpt lat="47.02407" lon="-1.12911">
        <ele>51</ele>
        <time>2023-11-14T06:33:44Z</time>
      </trkpt>
      <trkpt lat="47.02402" lon="-1.12884">
        <ele>50</ele>
        <time>2023-11-14T06:34:10Z</time>
      </trkpt>
      <trkpt lat="47.02403" lon="-1.12829">
        <ele>50</ele>
        <time>2023-11-14T06:35:00Z</time>
      </trkpt>
      <trkpt lat="47.024" lon="-1.12802">
        <ele>50</ele>
        <time>2023-11-14T06:35:25Z</time>
      </trkpt>
      <trkpt lat="47.02395" lon="-1.12775">
        <ele>50</ele>
        <time>2023-11-14T06:35:50Z</time>
      </trkpt>
      <trkpt lat="47.02385" lon="-1.12753">
        <ele>50</ele>
        <time>2023-11-14T06:36:14Z</time>
      </trkpt>
      <trkpt lat="47.0237" lon="-1.12737">
        <ele>50</ele>
        <time>2023-11-14T06:36:39Z</time>
      </trkpt>
      <trkpt lat="47.02352" lon="-1.1273">
        <ele>50</ele>
        <time>2023-11-14T06:37:04Z</time>
      </trkpt>
      <trkpt lat="47.02301" lon="-1.12698">
        <ele>50</ele>
        <time>2023-11-14T06:38:18Z</time>
      </trkpt>
      <trkpt lat="47.02271" lon="-1.12667">
        <ele>49</ele>
        <time>2023-11-14T06:39:07Z</time>
      </trkpt>
      <trkpt lat="47.02259" lon="-1.12646">
        <ele>49</ele>
        <time>2023-11-14T06:39:32Z</time>
      </trkpt>
      <trkpt lat="47.02249" lon="-1.12622">
        <ele>50</ele>
        <time>2023-11-14T06:39:57Z</time>
      </trkpt>
      <trkpt lat="47.02233" lon="-1.12572">
        <ele>52</ele>
        <time>2023-11-14T06:40:47Z</time>
      </trkpt>
      <trkpt lat="47.02224" lon="-1.12519">
        <ele>53</ele>
        <time>2023-11-14T06:41:37Z</time>
      </trkpt>
      <trkpt lat="47.02203" lon="-1.12443">
        <ele>52</ele>
        <time>2023-11-14T06:42:52Z</time>
      </trkpt>
      <trkpt lat="47.022" lon="-1.12388">
        <ele>53</ele>
        <time>2023-11-14T06:43:42Z</time>
      </trkpt>
      <trkpt lat="47.02203" lon="-1.1236">
        <ele>54</ele>
        <time>2023-11-14T06:44:08Z</time>
      </trkpt>
      <trkpt lat="47.02197" lon="-1.12277">
        <ele>54</ele>
        <time>2023-11-14T06:45:24Z</time>
      </trkpt>
      <trkpt lat="47.02179" lon="-1.12171">
        <ele>49</ele>
        <time>2023-11-14T06:47:03Z</time>
      </trkpt>
      <trkpt lat="47.02175" lon="-1.12118">
        <ele>49</ele>
        <time>2023-11-14T06:47:51Z</time>
      </trkpt>
      <trkpt lat="47.02166" lon="-1.12064">
        <ele>49</ele>
        <time>2023-11-14T06:48:42Z</time>
      </trkpt>
      <trkpt lat="47.02162" lon="-1.1201">
        <ele>51</ele>
        <time>2023-11-14T06:49:31Z</time>
      </trkpt>
      <trkpt lat="47.02152" lon="-1.11957">
        <ele>53</ele>
        <time>2023-11-14T06:50:21Z</time>
      </trkpt>
      <trkpt lat="47.02146" lon="-1.11903">
        <ele>54</ele>
        <time>2023-11-14T06:51:11Z</time>
      </trkpt>
      <trkpt lat="47.02141" lon="-1.11877">
        <ele>54</ele>
        <time>2023-11-14T06:51:36Z</time>
      </trkpt>
      <trkpt lat="47.02132" lon="-1.11854">
        <ele>54</ele>
        <time>2023-11-14T06:52:00Z</time>
      </trkpt>
      <trkpt lat="47.02108" lon="-1.1181">
        <ele>52</ele>
        <time>2023-11-14T06:52:51Z</time>
      </trkpt>
      <trkpt lat="47.02093" lon="-1.11733">
        <ele>52</ele>
        <time>2023-11-14T06:54:04Z</time>
      </trkpt>
      <trkpt lat="47.02091" lon="-1.11706">
        <ele>52</ele>
        <time>2023-11-14T06:54:29Z</time>
      </trkpt>
      <trkpt lat="47.02078" lon="-1.11656">
        <ele>52</ele>
        <time>2023-11-14T06:55:17Z</time>
      </trkpt>
      <trkpt lat="47.02064" lon="-1.11637">
        <ele>53</ele>
        <time>2023-11-14T06:55:43Z</time>
      </trkpt>
      <trkpt lat="47.02033" lon="-1.11609">
        <ele>52</ele>
        <time>2023-11-14T06:56:31Z</time>
      </trkpt>
      <trkpt lat="47.01987" lon="-1.1156">
        <ele>52</ele>
        <time>2023-11-14T06:57:47Z</time>
      </trkpt>
      <trkpt lat="47.01956" lon="-1.1149">
        <ele>53</ele>
        <time>2023-11-14T06:59:03Z</time>
      </trkpt>
      <trkpt lat="47.01926" lon="-1.1146">
        <ele>52</ele>
        <time>2023-11-14T06:59:52Z</time>
      </trkpt>
      <trkpt lat="47.01901" lon="-1.11417">
        <ele>53</ele>
        <time>2023-11-14T07:00:43Z</time>
      </trkpt>
      <trkpt lat="47.01869" lon="-1.1132">
        <ele>55</ele>
        <time>2023-11-14T07:02:21Z</time>
      </trkpt>
      <trkpt lat="47.01855" lon="-1.11301">
        <ele>56</ele>
        <time>2023-11-14T07:02:47Z</time>
      </trkpt>
      <trkpt lat="47.01819" lon="-1.11285">
        <ele>54</ele>
        <time>2023-11-14T07:03:37Z</time>
      </trkpt>
      <trkpt lat="47.01801" lon="-1.1128">
        <ele>53</ele>
        <time>2023-11-14T07:04:01Z</time>
      </trkpt>
      <trkpt lat="47.01766" lon="-1.11262">
        <ele>52</ele>
        <time>2023-11-14T07:04:51Z</time>
      </trkpt>
      <trkpt lat="47.01718" lon="-1.11221">
        <ele>53</ele>
        <time>2023-11-14T07:06:05Z</time>
      </trkpt>
      <trkpt lat="47.0169" lon="-1.11186">
        <ele>53</ele>
        <time>2023-11-14T07:06:54Z</time>
      </trkpt>
      <trkpt lat="47.01678" lon="-1.11164">
        <ele>53</ele>
        <time>2023-11-14T07:07:20Z</time>
      </trkpt>
      <trkpt lat="47.01661" lon="-1.11114">
        <ele>53</ele>
        <time>2023-11-14T07:08:10Z</time>
      </trkpt>
      <trkpt lat="47.0165" lon="-1.11092">
        <ele>54</ele>
        <time>2023-11-14T07:08:35Z</time>
      </trkpt>
      <trkpt lat="47.01648" lon="-1.11065">
        <ele>54</ele>
        <time>2023-11-14T07:09:00Z</time>
      </trkpt>
      <trkpt lat="47.01639" lon="-1.11042">
        <ele>54</ele>
        <time>2023-11-14T07:09:24Z</time>
      </trkpt>
      <trkpt lat="47.01627" lon="-1.1102">
        <ele>54</ele>
        <time>2023-11-14T07:09:50Z</time>
      </trkpt>
      <trkpt lat="47.01611" lon="-1.1097">
        <ele>53</ele>
        <time>2023-11-14T07:10:40Z</time>
      </trkpt>
      <trkpt lat="47.01607" lon="-1.10943">
        <ele>53</ele>
        <time>2023-11-14T07:11:05Z</time>
      </trkpt>
      <trkpt lat="47.01625" lon="-1.10991">
        <ele>54</ele>
        <time>2023-11-14T07:11:55Z</time>
      </trkpt>
      <trkpt lat="47.01598" lon="-1.1115">
        <ele>50</ele>
        <time>2023-11-14T07:14:24Z</time>
      </trkpt>
      <trkpt lat="47.01594" lon="-1.11205">
        <ele>50</ele>
        <time>2023-11-14T07:15:14Z</time>
      </trkpt>
      <trkpt lat="47.0158" lon="-1.11283">
        <ele>54</ele>
        <time>2023-11-14T07:16:28Z</time>
      </trkpt>
      <trkpt lat="47.01546" lon="-1.1138">
        <ele>67</ele>
        <time>2023-11-14T07:18:07Z</time>
      </trkpt>
      <trkpt lat="47.01544" lon="-1.11407">
        <ele>69</ele>
        <time>2023-11-14T07:18:32Z</time>
      </trkpt>
      <trkpt lat="47.01514" lon="-1.11474">
        <ele>70</ele>
        <time>2023-11-14T07:19:45Z</time>
      </trkpt>
      <trkpt lat="47.0151" lon="-1.11501">
        <ele>69</ele>
        <time>2023-11-14T07:20:10Z</time>
      </trkpt>
      <trkpt lat="47.0152" lon="-1.11523">
        <ele>66</ele>
        <time>2023-11-14T07:20:34Z</time>
      </trkpt>
      <trkpt lat="47.01505" lon="-1.11537">
        <ele>65</ele>
        <time>2023-11-14T07:20:58Z</time>
      </trkpt>
      <trkpt lat="47.0148" lon="-1.11578">
        <ele>64</ele>
        <time>2023-11-14T07:21:48Z</time>
      </trkpt>
      <trkpt lat="47.01469" lon="-1.11601">
        <ele>64</ele>
        <time>2023-11-14T07:22:13Z</time>
      </trkpt>
      <trkpt lat="47.01456" lon="-1.11619">
        <ele>65</ele>
        <time>2023-11-14T07:22:37Z</time>
      </trkpt>
      <trkpt lat="47.01438" lon="-1.11665">
        <ele>63</ele>
        <time>2023-11-14T07:23:25Z</time>
      </trkpt>
      <trkpt lat="47.01432" lon="-1.11719">
        <ele>60</ele>
        <time>2023-11-14T07:24:15Z</time>
      </trkpt>
      <trkpt lat="47.01432" lon="-1.11746">
        <ele>58</ele>
        <time>2023-11-14T07:24:40Z</time>
      </trkpt>
      <trkpt lat="47.01415" lon="-1.11824">
        <ele>55</ele>
        <time>2023-11-14T07:25:54Z</time>
      </trkpt>
      <trkpt lat="47.01417" lon="-1.11851">
        <ele>56</ele>
        <time>2023-11-14T07:26:19Z</time>
      </trkpt>
      <trkpt lat="47.01434" lon="-1.11839">
        <ele>58</ele>
        <time>2023-11-14T07:26:44Z</time>
      </trkpt>
      <trkpt lat="47.01462" lon="-1.11805">
        <ele>61</ele>
        <time>2023-11-14T07:27:33Z</time>
      </trkpt>
      <trkpt lat="47.01475" lon="-1.11785">
        <ele>62</ele>
        <time>2023-11-14T07:27:58Z</time>
      </trkpt>
      <trkpt lat="47.01499" lon="-1.11712">
        <ele>62</ele>
        <time>2023-11-14T07:29:11Z</time>
      </trkpt>
      <trkpt lat="47.01536" lon="-1.11651">
        <ele>61</ele>
        <time>2023-11-14T07:30:26Z</time>
      </trkpt>
      <trkpt lat="47.01552" lon="-1.11637">
        <ele>61</ele>
        <time>2023-11-14T07:30:51Z</time>
      </trkpt>
      <trkpt lat="47.01571" lon="-1.11629">
        <ele>61</ele>
        <time>2023-11-14T07:31:17Z</time>
      </trkpt>
      <trkpt lat="47.01589" lon="-1.11637">
        <ele>61</ele>
        <time>2023-11-14T07:31:42Z</time>
      </trkpt>
      <trkpt lat="47.01601" lon="-1.11658">
        <ele>61</ele>
        <time>2023-11-14T07:32:07Z</time>
      </trkpt>
      <trkpt lat="47.01616" lon="-1.11675">
        <ele>62</ele>
        <time>2023-11-14T07:32:32Z</time>
      </trkpt>
      <trkpt lat="47.01633" lon="-1.11686">
        <ele>62</ele>
        <time>2023-11-14T07:32:57Z</time>
      </trkpt>
      <trkpt lat="47.01651" lon="-1.11691">
        <ele>62</ele>
        <time>2023-11-14T07:33:22Z</time>
      </trkpt>
      <trkpt lat="47.01683" lon="-1.11699">
        <ele>63</ele>
        <time>2023-11-14T07:34:05Z</time>
      </trkpt>
      <trkpt lat="47.01738" lon="-1.11699">
        <ele>62</ele>
        <time>2023-11-14T07:35:18Z</time>
      </trkpt>
      <trkpt lat="47.01775" lon="-1.11693">
        <ele>62</ele>
        <time>2023-11-14T07:36:08Z</time>
      </trkpt>
      <trkpt lat="47.01792" lon="-1.11697">
        <ele>63</ele>
        <time>2023-11-14T07:36:31Z</time>
      </trkpt>
      <trkpt lat="47.01789" lon="-1.1167">
        <ele>59</ele>
        <time>2023-11-14T07:36:56Z</time>
      </trkpt>
      <trkpt lat="47.01797" lon="-1.11646">
        <ele>57</ele>
        <time>2023-11-14T07:37:20Z</time>
      </trkpt>
      <trkpt lat="47.01815" lon="-1.11645">
        <ele>57</ele>
        <time>2023-11-14T07:37:44Z</time>
      </trkpt>
      <trkpt lat="47.01834" lon="-1.11598">
        <ele>52</ele>
        <time>2023-11-14T07:38:34Z</time>
      </trkpt>
      <trkpt lat="47.01849" lon="-1.11583">
        <ele>51</ele>
        <time>2023-11-14T07:38:58Z</time>
      </trkpt>
      <trkpt lat="47.01877" lon="-1.11544">
        <ele>50</ele>
        <time>2023-11-14T07:39:50Z</time>
      </trkpt>
      <trkpt lat="47.0189" lon="-1.11565">
        <ele>50</ele>
        <time>2023-11-14T07:40:15Z</time>
      </trkpt>
      <trkpt lat="47.01921" lon="-1.11592">
        <ele>51</ele>
        <time>2023-11-14T07:41:04Z</time>
      </trkpt>
      <trkpt lat="47.0193" lon="-1.11616">
        <ele>53</ele>
        <time>2023-11-14T07:41:28Z</time>
      </trkpt>
      <trkpt lat="47.01942" lon="-1.11636">
        <ele>54</ele>
        <time>2023-11-14T07:41:53Z</time>
      </trkpt>
      <trkpt lat="47.01962" lon="-1.11682">
        <ele>55</ele>
        <time>2023-11-14T07:42:42Z</time>
      </trkpt>
      <trkpt lat="47.01975" lon="-1.11702">
        <ele>56</ele>
        <time>2023-11-14T07:43:07Z</time>
      </trkpt>
      <trkpt lat="47.0199" lon="-1.11718">
        <ele>55</ele>
        <time>2023-11-14T07:43:32Z</time>
      </trkpt>
      <trkpt lat="47.02017" lon="-1.11787">
        <ele>58</ele>
        <time>2023-11-14T07:44:45Z</time>
      </trkpt>
      <trkpt lat="47.0202" lon="-1.11814">
        <ele>60</ele>
        <time>2023-11-14T07:45:09Z</time>
      </trkpt>
      <trkpt lat="47.02036" lon="-1.11862">
        <ele>60</ele>
        <time>2023-11-14T07:45:58Z</time>
      </trkpt>
      <trkpt lat="47.0206" lon="-1.11904">
        <ele>55</ele>
        <time>2023-11-14T07:46:48Z</time>
      </trkpt>
      <trkpt lat="47.0207" lon="-1.11985">
        <ele>54</ele>
        <time>2023-11-14T07:48:03Z</time>
      </trkpt>
      <trkpt lat="47.02079" lon="-1.12091">
        <ele>56</ele>
        <time>2023-11-14T07:49:40Z</time>
      </trkpt>
      <trkpt lat="47.02092" lon="-1.1217">
        <ele>58</ele>
        <time>2023-11-14T07:50:54Z</time>
      </trkpt>
      <trkpt lat="47.021" lon="-1.12195">
        <ele>59</ele>
        <time>2023-11-14T07:51:19Z</time>
      </trkpt>
      <trkpt lat="47.02114" lon="-1.12212">
        <ele>57</ele>
        <time>2023-11-14T07:51:43Z</time>
      </trkpt>
      <trkpt lat="47.02124" lon="-1.12234">
        <ele>56</ele>
        <time>2023-11-14T07:52:07Z</time>
      </trkpt>
      <trkpt lat="47.0213" lon="-1.1226">
        <ele>56</ele>
        <time>2023-11-14T07:52:32Z</time>
      </trkpt>
      <trkpt lat="47.02129" lon="-1.12288">
        <ele>57</ele>
        <time>2023-11-14T07:52:58Z</time>
      </trkpt>
      <trkpt lat="47.02135" lon="-1.12314">
        <ele>56</ele>
        <time>2023-11-14T07:53:23Z</time>
      </trkpt>
      <trkpt lat="47.02141" lon="-1.12479">
        <ele>52</ele>
        <time>2023-11-14T07:55:53Z</time>
      </trkpt>
      <trkpt lat="47.02134" lon="-1.12504">
        <ele>53</ele>
        <time>2023-11-14T07:56:18Z</time>
      </trkpt>
      <trkpt lat="47.02122" lon="-1.12525">
        <ele>54</ele>
        <time>2023-11-14T07:56:43Z</time>
      </trkpt>
      <trkpt lat="47.02108" lon="-1.12542">
        <ele>56</ele>
        <time>2023-11-14T07:57:07Z</time>
      </trkpt>
      <trkpt lat="47.02099" lon="-1.12566">
        <ele>57</ele>
        <time>2023-11-14T07:57:32Z</time>
      </trkpt>
      <trkpt lat="47.02106" lon="-1.12618">
        <ele>54</ele>
        <time>2023-11-14T07:58:20Z</time>
      </trkpt>
      <trkpt lat="47.02096" lon="-1.12673">
        <ele>54</ele>
        <time>2023-11-14T07:59:12Z</time>
      </trkpt>
      <trkpt lat="47.02088" lon="-1.12697">
        <ele>55</ele>
        <time>2023-11-14T07:59:36Z</time>
      </trkpt>
      <trkpt lat="47.02086" lon="-1.12724">
        <ele>55</ele>
        <time>2023-11-14T08:00:01Z</time>
      </trkpt>
      <trkpt lat="47.02091" lon="-1.12777">
        <ele>55</ele>
        <time>2023-11-14T08:00:50Z</time>
      </trkpt>
      <trkpt lat="47.02088" lon="-1.12804">
        <ele>55</ele>
        <time>2023-11-14T08:01:14Z</time>
      </trkpt>
      <trkpt lat="47.02088" lon="-1.1286">
        <ele>54</ele>
        <time>2023-11-14T08:02:05Z</time>
      </trkpt>
      <trkpt lat="47.02076" lon="-1.12883">
        <ele>55</ele>
        <time>2023-11-14T08:02:32Z</time>
      </trkpt>
      <trkpt lat="47.02062" lon="-1.12934">
        <ele>57</ele>
        <time>2023-11-14T08:03:22Z</time>
      </trkpt>
      <trkpt lat="47.02044" lon="-1.12982">
        <ele>58</ele>
        <time>2023-11-14T08:04:12Z</time>
      </trkpt>
      <trkpt lat="47.02032" lon="-1.13002">
        <ele>60</ele>
        <time>2023-11-14T08:04:36Z</time>
      </trkpt>
      <trkpt lat="47.02024" lon="-1.13026">
        <ele>60</ele>
        <time>2023-11-14T08:05:00Z</time>
      </trkpt>
      <trkpt lat="47.02012" lon="-1.13048">
        <ele>60</ele>
        <time>2023-11-14T08:05:26Z</time>
      </trkpt>
      <trkpt lat="47.01981" lon="-1.13079">
        <ele>61</ele>
        <time>2023-11-14T08:06:16Z</time>
      </trkpt>
      <trkpt lat="47.01971" lon="-1.13102">
        <ele>61</ele>
        <time>2023-11-14T08:06:41Z</time>
      </trkpt>
      <trkpt lat="47.01965" lon="-1.13128">
        <ele>60</ele>
        <time>2023-11-14T08:07:06Z</time>
      </trkpt>
      <trkpt lat="47.01929" lon="-1.13145">
        <ele>64</ele>
        <time>2023-11-14T08:07:56Z</time>
      </trkpt>
      <trkpt lat="47.01913" lon="-1.13158">
        <ele>66</ele>
        <time>2023-11-14T08:08:20Z</time>
      </trkpt>
      <trkpt lat="47.01901" lon="-1.13179">
        <ele>66</ele>
        <time>2023-11-14T08:08:45Z</time>
      </trkpt>
      <trkpt lat="47.01887" lon="-1.13197">
        <ele>66</ele>
        <time>2023-11-14T08:09:10Z</time>
      </trkpt>
      <trkpt lat="47.01855" lon="-1.13226">
        <ele>68</ele>
        <time>2023-11-14T08:10:00Z</time>
      </trkpt>
      <trkpt lat="47.0182" lon="-1.13244">
        <ele>70</ele>
        <time>2023-11-14T08:10:50Z</time>
      </trkpt>
      <trkpt lat="47.01802" lon="-1.1325">
        <ele>71</ele>
        <time>2023-11-14T08:11:15Z</time>
      </trkpt>
      <trkpt lat="47.01791" lon="-1.13229">
        <ele>72</ele>
        <time>2023-11-14T08:11:39Z</time>
      </trkpt>
      <trkpt lat="47.01784" lon="-1.13204">
        <ele>73</ele>
        <time>2023-11-14T08:12:03Z</time>
      </trkpt>
      <trkpt lat="47.01775" lon="-1.13123">
        <ele>75</ele>
        <time>2023-11-14T08:13:18Z</time>
      </trkpt>
      <trkpt lat="47.01749" lon="-1.13022">
        <ele>79</ele>
        <time>2023-11-14T08:14:56Z</time>
      </trkpt>
      <trkpt lat="47.01735" lon="-1.12916">
        <ele>79</ele>
        <time>2023-11-14T08:16:34Z</time>
      </trkpt>
      <trkpt lat="47.01735" lon="-1.12889">
        <ele>79</ele>
        <time>2023-11-14T08:16:59Z</time>
      </trkpt>
      <trkpt lat="47.01729" lon="-1.12835">
        <ele>79</ele>
        <time>2023-11-14T08:17:49Z</time>
      </trkpt>
      <trkpt lat="47.01727" lon="-1.12727">
        <ele>79</ele>
        <time>2023-11-14T08:19:27Z</time>
      </trkpt>
      <trkpt lat="47.01732" lon="-1.12673">
        <ele>79</ele>
        <time>2023-11-14T08:20:17Z</time>
      </trkpt>
      <trkpt lat="47.01731" lon="-1.12645">
        <ele>79</ele>
        <time>2023-11-14T08:20:42Z</time>
      </trkpt>
      <trkpt lat="47.01733" lon="-1.12618">
        <ele>79</ele>
        <time>2023-11-14T08:21:07Z</time>
      </trkpt>
      <trkpt lat="47.01742" lon="-1.12537">
        <ele>80</ele>
        <time>2023-11-14T08:22:21Z</time>
      </trkpt>
      <trkpt lat="47.01742" lon="-1.1251">
        <ele>80</ele>
        <time>2023-11-14T08:22:46Z</time>
      </trkpt>
      <trkpt lat="47.01738" lon="-1.12482">
        <ele>80</ele>
        <time>2023-11-14T08:23:12Z</time>
      </trkpt>
      <trkpt lat="47.01712" lon="-1.12382">
        <ele>79</ele>
        <time>2023-11-14T08:24:49Z</time>
      </trkpt>
      <trkpt lat="47.01707" lon="-1.12355">
        <ele>79</ele>
        <time>2023-11-14T08:25:15Z</time>
      </trkpt>
      <trkpt lat="47.01699" lon="-1.12275">
        <ele>79</ele>
        <time>2023-11-14T08:26:28Z</time>
      </trkpt>
      <trkpt lat="47.01681" lon="-1.12198">
        <ele>79</ele>
        <time>2023-11-14T08:27:43Z</time>
      </trkpt>
      <trkpt lat="47.01658" lon="-1.12124">
        <ele>79</ele>
        <time>2023-11-14T08:28:57Z</time>
      </trkpt>
      <trkpt lat="47.01622" lon="-1.12028">
        <ele>79</ele>
        <time>2023-11-14T08:30:36Z</time>
      </trkpt>
      <trkpt lat="47.01606" lon="-1.11949">
        <ele>79</ele>
        <time>2023-11-14T08:31:51Z</time>
      </trkpt>
      <trkpt lat="47.01591" lon="-1.119">
        <ele>78</ele>
        <time>2023-11-14T08:32:40Z</time>
      </trkpt>
      <trkpt lat="47.01604" lon="-1.11793">
        <ele>74</ele>
        <time>2023-11-14T08:34:19Z</time>
      </trkpt>
      <trkpt lat="47.01619" lon="-1.11776">
        <ele>73</ele>
        <time>2023-11-14T08:34:44Z</time>
      </trkpt>
      <trkpt lat="47.0163" lon="-1.11722">
        <ele>68</ele>
        <time>2023-11-14T08:35:35Z</time>
      </trkpt>
      <trkpt lat="47.01623" lon="-1.11697">
        <ele>64</ele>
        <time>2023-11-14T08:36:00Z</time>
      </trkpt>
      <trkpt lat="47.01608" lon="-1.11673">
        <ele>62</ele>
        <time>2023-11-14T08:36:30Z</time>
      </trkpt>
      <trkpt lat="47.01599" lon="-1.11648">
        <ele>61</ele>
        <time>2023-11-14T08:36:55Z</time>
      </trkpt>
      <trkpt lat="47.01611" lon="-1.11669">
        <ele>61</ele>
        <time>2023-11-14T08:37:20Z</time>
      </trkpt>
      <trkpt lat="47.01627" lon="-1.11685">
        <ele>62</ele>
        <time>2023-11-14T08:37:46Z</time>
      </trkpt>
      <trkpt lat="47.01663" lon="-1.11701">
        <ele>63</ele>
        <time>2023-11-14T08:38:36Z</time>
      </trkpt>
      <trkpt lat="47.01681" lon="-1.11703">
        <ele>64</ele>
        <time>2023-11-14T08:39:00Z</time>
      </trkpt>
      <trkpt lat="47.0174" lon="-1.11703">
        <ele>63</ele>
        <time>2023-11-14T08:40:19Z</time>
      </trkpt>
      <trkpt lat="47.01758" lon="-1.11696">
        <ele>62</ele>
        <time>2023-11-14T08:40:44Z</time>
      </trkpt>
      <trkpt lat="47.01776" lon="-1.11695">
        <ele>62</ele>
        <time>2023-11-14T08:41:08Z</time>
      </trkpt>
      <trkpt lat="47.01792" lon="-1.11682">
        <ele>61</ele>
        <time>2023-11-14T08:41:33Z</time>
      </trkpt>
      <trkpt lat="47.01784" lon="-1.11658">
        <ele>58</ele>
        <time>2023-11-14T08:41:57Z</time>
      </trkpt>
      <trkpt lat="47.01793" lon="-1.11635">
        <ele>57</ele>
        <time>2023-11-14T08:42:21Z</time>
      </trkpt>
      <trkpt lat="47.0181" lon="-1.11647">
        <ele>57</ele>
        <time>2023-11-14T08:42:46Z</time>
      </trkpt>
      <trkpt lat="47.01824" lon="-1.11627">
        <ele>56</ele>
        <time>2023-11-14T08:43:12Z</time>
      </trkpt>
      <trkpt lat="47.01833" lon="-1.11604">
        <ele>53</ele>
        <time>2023-11-14T08:43:36Z</time>
      </trkpt>
      <trkpt lat="47.01845" lon="-1.11583">
        <ele>51</ele>
        <time>2023-11-14T08:44:01Z</time>
      </trkpt>
      <trkpt lat="47.01861" lon="-1.11569">
        <ele>51</ele>
        <time>2023-11-14T08:44:26Z</time>
      </trkpt>
      <trkpt lat="47.01867" lon="-1.11543">
        <ele>50</ele>
        <time>2023-11-14T08:44:51Z</time>
      </trkpt>
      <trkpt lat="47.01863" lon="-1.11517">
        <ele>51</ele>
        <time>2023-11-14T08:45:15Z</time>
      </trkpt>
      <trkpt lat="47.01854" lon="-1.11494">
        <ele>51</ele>
        <time>2023-11-14T08:45:39Z</time>
      </trkpt>
      <trkpt lat="47.01851" lon="-1.11468">
        <ele>51</ele>
        <time>2023-11-14T08:46:03Z</time>
      </trkpt>
      <trkpt lat="47.01842" lon="-1.11444">
        <ele>50</ele>
        <time>2023-11-14T08:46:28Z</time>
      </trkpt>
      <trkpt lat="47.01801" lon="-1.11389">
        <ele>52</ele>
        <time>2023-11-14T08:47:43Z</time>
      </trkpt>
      <trkpt lat="47.01785" lon="-1.11375">
        <ele>52</ele>
        <time>2023-11-14T08:48:07Z</time>
      </trkpt>
      <trkpt lat="47.01735" lon="-1.11341">
        <ele>51</ele>
        <time>2023-11-14T08:49:21Z</time>
      </trkpt>
      <trkpt lat="47.01716" lon="-1.11336">
        <ele>53</ele>
        <time>2023-11-14T08:49:47Z</time>
      </trkpt>
      <trkpt lat="47.01661" lon="-1.11314">
        <ele>55</ele>
        <time>2023-11-14T08:51:03Z</time>
      </trkpt>
      <trkpt lat="47.01643" lon="-1.11318">
        <ele>56</ele>
        <time>2023-11-14T08:51:27Z</time>
      </trkpt>
      <trkpt lat="47.01626" lon="-1.11328">
        <ele>57</ele>
        <time>2023-11-14T08:51:52Z</time>
      </trkpt>
      <trkpt lat="47.01607" lon="-1.1133">
        <ele>57</ele>
        <time>2023-11-14T08:52:17Z</time>
      </trkpt>
      <trkpt lat="47.01589" lon="-1.1132">
        <ele>57</ele>
        <time>2023-11-14T08:52:43Z</time>
      </trkpt>
      <trkpt lat="47.01581" lon="-1.11296">
        <ele>55</ele>
        <time>2023-11-14T08:53:07Z</time>
      </trkpt>
      <trkpt lat="47.01587" lon="-1.11271">
        <ele>53</ele>
        <time>2023-11-14T08:53:31Z</time>
      </trkpt>
      <trkpt lat="47.01587" lon="-1.11244">
        <ele>51</ele>
        <time>2023-11-14T08:53:56Z</time>
      </trkpt>
      <trkpt lat="47.01594" lon="-1.11219">
        <ele>50</ele>
        <time>2023-11-14T08:54:20Z</time>
      </trkpt>
      <trkpt lat="47.01598" lon="-1.11193">
        <ele>50</ele>
        <time>2023-11-14T08:54:44Z</time>
      </trkpt>
      <trkpt lat="47.01613" lon="-1.11058">
        <ele>52</ele>
        <time>2023-11-14T08:56:49Z</time>
      </trkpt>
      <trkpt lat="47.01618" lon="-1.11032">
        <ele>53</ele>
        <time>2023-11-14T08:57:13Z</time>
      </trkpt>
      <trkpt lat="47.01628" lon="-1.11007">
        <ele>54</ele>
        <time>2023-11-14T08:57:40Z</time>
      </trkpt>
      <trkpt lat="47.01627" lon="-1.1098">
        <ele>54</ele>
        <time>2023-11-14T08:58:04Z</time>
      </trkpt>
      <trkpt lat="47.01617" lon="-1.10957">
        <ele>54</ele>
        <time>2023-11-14T08:58:29Z</time>
      </trkpt>
      <trkpt lat="47.01607" lon="-1.1085">
        <ele>54</ele>
        <time>2023-11-14T09:00:08Z</time>
      </trkpt>
      <trkpt lat="47.01601" lon="-1.10825">
        <ele>54</ele>
        <time>2023-11-14T09:00:32Z</time>
      </trkpt>
      <trkpt lat="47.01594" lon="-1.1077">
        <ele>52</ele>
        <time>2023-11-14T09:01:23Z</time>
      </trkpt>
      <trkpt lat="47.01582" lon="-1.10716">
        <ele>52</ele>
        <time>2023-11-14T09:02:14Z</time>
      </trkpt>
      <trkpt lat="47.01581" lon="-1.10689">
        <ele>53</ele>
        <time>2023-11-14T09:02:39Z</time>
      </trkpt>
      <trkpt lat="47.01573" lon="-1.10664">
        <ele>54</ele>
        <time>2023-11-14T09:03:04Z</time>
      </trkpt>
      <trkpt lat="47.01564" lon="-1.10611">
        <ele>57</ele>
        <time>2023-11-14T09:03:54Z</time>
      </trkpt>
      <trkpt lat="47.01556" lon="-1.10587">
        <ele>58</ele>
        <time>2023-11-14T09:04:18Z</time>
      </trkpt>
      <trkpt lat="47.01548" lon="-1.10533">
        <ele>58</ele>
        <time>2023-11-14T09:05:08Z</time>
      </trkpt>
      <trkpt lat="47.0154" lon="-1.10509">
        <ele>58</ele>
        <time>2023-11-14T09:05:33Z</time>
      </trkpt>
      <trkpt lat="47.01522" lon="-1.10497">
        <ele>57</ele>
        <time>2023-11-14T09:05:59Z</time>
      </trkpt>
      <trkpt lat="47.01553" lon="-1.10557">
        <ele>58</ele>
        <time>2023-11-14T09:07:07Z</time>
      </trkpt>
      <trkpt lat="47.01531" lon="-1.10517">
        <ele>58</ele>
        <time>2023-11-14T09:07:54Z</time>
      </trkpt>
      <trkpt lat="47.01526" lon="-1.10491">
        <ele>57</ele>
        <time>2023-11-14T09:08:19Z</time>
      </trkpt>
      <trkpt lat="47.01544" lon="-1.1048">
        <ele>59</ele>
        <time>2023-11-14T09:08:45Z</time>
      </trkpt>
      <trkpt lat="47.01555" lon="-1.104">
        <ele>60</ele>
        <time>2023-11-14T09:09:59Z</time>
      </trkpt>
      <trkpt lat="47.01569" lon="-1.10382">
        <ele>62</ele>
        <time>2023-11-14T09:10:24Z</time>
      </trkpt>
      <trkpt lat="47.01585" lon="-1.10369">
        <ele>64</ele>
        <time>2023-11-14T09:10:48Z</time>
      </trkpt>
      <trkpt lat="47.01588" lon="-1.10287">
        <ele>66</ele>
        <time>2023-11-14T09:12:03Z</time>
      </trkpt>
      <trkpt lat="47.0158" lon="-1.10261">
        <ele>66</ele>
        <time>2023-11-14T09:12:29Z</time>
      </trkpt>
      <trkpt lat="47.01577" lon="-1.10234">
        <ele>67</ele>
        <time>2023-11-14T09:12:54Z</time>
      </trkpt>
      <trkpt lat="47.0158" lon="-1.10208">
        <ele>68</ele>
        <time>2023-11-14T09:13:18Z</time>
      </trkpt>
      <trkpt lat="47.01586" lon="-1.10183">
        <ele>71</ele>
        <time>2023-11-14T09:13:42Z</time>
      </trkpt>
      <trkpt lat="47.01601" lon="-1.10166">
        <ele>74</ele>
        <time>2023-11-14T09:14:07Z</time>
      </trkpt>
      <trkpt lat="47.01601" lon="-1.1014">
        <ele>74</ele>
        <time>2023-11-14T09:14:31Z</time>
      </trkpt>
      <trkpt lat="47.01609" lon="-1.10116">
        <ele>75</ele>
        <time>2023-11-14T09:14:55Z</time>
      </trkpt>
      <trkpt lat="47.01627" lon="-1.10118">
        <ele>77</ele>
        <time>2023-11-14T09:15:19Z</time>
      </trkpt>
      <trkpt lat="47.01637" lon="-1.10094">
        <ele>79</ele>
        <time>2023-11-14T09:15:45Z</time>
      </trkpt>
      <trkpt lat="47.01654" lon="-1.10086">
        <ele>81</ele>
        <time>2023-11-14T09:16:09Z</time>
      </trkpt>
      <trkpt lat="47.01694" lon="-1.10085">
        <ele>85</ele>
        <time>2023-11-14T09:17:02Z</time>
      </trkpt>
      <trkpt lat="47.01725" lon="-1.10114">
        <ele>87</ele>
        <time>2023-11-14T09:17:51Z</time>
      </trkpt>
      <trkpt lat="47.01743" lon="-1.10125">
        <ele>88</ele>
        <time>2023-11-14T09:18:17Z</time>
      </trkpt>
      <trkpt lat="47.01762" lon="-1.10132">
        <ele>89</ele>
        <time>2023-11-14T09:18:43Z</time>
      </trkpt>
      <trkpt lat="47.0178" lon="-1.1013">
        <ele>89</ele>
        <time>2023-11-14T09:19:07Z</time>
      </trkpt>
      <trkpt lat="47.01797" lon="-1.10119">
        <ele>89</ele>
        <time>2023-11-14T09:19:32Z</time>
      </trkpt>
      <trkpt lat="47.01803" lon="-1.10095">
        <ele>90</ele>
        <time>2023-11-14T09:19:55Z</time>
      </trkpt>
      <trkpt lat="47.01806" lon="-1.10068">
        <ele>90</ele>
        <time>2023-11-14T09:20:20Z</time>
      </trkpt>
      <trkpt lat="47.01805" lon="-1.1004">
        <ele>90</ele>
        <time>2023-11-14T09:20:46Z</time>
      </trkpt>
      <trkpt lat="47.018" lon="-1.10014">
        <ele>90</ele>
        <time>2023-11-14T09:21:10Z</time>
      </trkpt>
      <trkpt lat="47.01798" lon="-1.0996">
        <ele>91</ele>
        <time>2023-11-14T09:22:00Z</time>
      </trkpt>
      <trkpt lat="47.0179" lon="-1.09906">
        <ele>91</ele>
        <time>2023-11-14T09:22:50Z</time>
      </trkpt>
      <trkpt lat="47.01789" lon="-1.09852">
        <ele>91</ele>
        <time>2023-11-14T09:23:39Z</time>
      </trkpt>
      <trkpt lat="47.01797" lon="-1.09828">
        <ele>91</ele>
        <time>2023-11-14T09:24:03Z</time>
      </trkpt>
      <trkpt lat="47.01813" lon="-1.09815">
        <ele>92</ele>
        <time>2023-11-14T09:24:28Z</time>
      </trkpt>
      <trkpt lat="47.01801" lon="-1.09708">
        <ele>92</ele>
        <time>2023-11-14T09:26:06Z</time>
      </trkpt>
      <trkpt lat="47.018" lon="-1.09735">
        <ele>93</ele>
        <time>2023-11-14T09:26:31Z</time>
      </trkpt>
      <trkpt lat="47.01804" lon="-1.09761">
        <ele>92</ele>
        <time>2023-11-14T09:26:55Z</time>
      </trkpt>
      <trkpt lat="47.01812" lon="-1.09787">
        <ele>92</ele>
        <time>2023-11-14T09:27:21Z</time>
      </trkpt>
      <trkpt lat="47.0181" lon="-1.09816">
        <ele>91</ele>
        <time>2023-11-14T09:27:48Z</time>
      </trkpt>
      <trkpt lat="47.01826" lon="-1.09831">
        <ele>92</ele>
        <time>2023-11-14T09:28:13Z</time>
      </trkpt>
      <trkpt lat="47.01837" lon="-1.0981">
        <ele>92</ele>
        <time>2023-11-14T09:28:37Z</time>
      </trkpt>
      <trkpt lat="47.01855" lon="-1.09801">
        <ele>93</ele>
        <time>2023-11-14T09:29:03Z</time>
      </trkpt>
      <trkpt lat="47.01945" lon="-1.09763">
        <ele>96</ele>
        <time>2023-11-14T09:31:08Z</time>
      </trkpt>
      <trkpt lat="47.02001" lon="-1.09743">
        <ele>98</ele>
        <time>2023-11-14T09:32:24Z</time>
      </trkpt>
      <trkpt lat="47.02055" lon="-1.09719">
        <ele>99</ele>
        <time>2023-11-14T09:33:40Z</time>
      </trkpt>
      <trkpt lat="47.02089" lon="-1.09701">
        <ele>99</ele>
        <time>2023-11-14T09:34:28Z</time>
      </trkpt>
      <trkpt lat="47.02145" lon="-1.09681">
        <ele>100</ele>
        <time>2023-11-14T09:35:45Z</time>
      </trkpt>
      <trkpt lat="47.0236" lon="-1.09586">
        <ele>107</ele>
        <time>2023-11-14T09:40:45Z</time>
      </trkpt>
      <trkpt lat="47.02449" lon="-1.09554">
        <ele>112</ele>
        <time>2023-11-14T09:42:47Z</time>
      </trkpt>
      <trkpt lat="47.02466" lon="-1.09544">
        <ele>112</ele>
        <time>2023-11-14T09:43:11Z</time>
      </trkpt>
      <trkpt lat="47.02503" lon="-1.09529">
        <ele>112</ele>
        <time>2023-11-14T09:44:02Z</time>
      </trkpt>
      <trkpt lat="47.02519" lon="-1.09515">
        <ele>112</ele>
        <time>2023-11-14T09:44:27Z</time>
      </trkpt>
      <trkpt lat="47.02592" lon="-1.09491">
        <ele>112</ele>
        <time>2023-11-14T09:46:07Z</time>
      </trkpt>
      <trkpt lat="47.02609" lon="-1.09479">
        <ele>112</ele>
        <time>2023-11-14T09:46:32Z</time>
      </trkpt>
      <trkpt lat="47.02702" lon="-1.0944">
        <ele>110</ele>
        <time>2023-11-14T09:48:41Z</time>
      </trkpt>
      <trkpt lat="47.02791" lon="-1.09399">
        <ele>110</ele>
        <time>2023-11-14T09:50:46Z</time>
      </trkpt>
      <trkpt lat="47.02809" lon="-1.09395">
        <ele>109</ele>
        <time>2023-11-14T09:51:10Z</time>
      </trkpt>
      <trkpt lat="47.02826" lon="-1.09385">
        <ele>110</ele>
        <time>2023-11-14T09:51:35Z</time>
      </trkpt>
      <trkpt lat="47.02862" lon="-1.0937">
        <ele>110</ele>
        <time>2023-11-14T09:52:25Z</time>
      </trkpt>
      <trkpt lat="47.02879" lon="-1.09358">
        <ele>110</ele>
        <time>2023-11-14T09:52:50Z</time>
      </trkpt>
      <trkpt lat="47.0295" lon="-1.09326">
        <ele>109</ele>
        <time>2023-11-14T09:54:29Z</time>
      </trkpt>
      <trkpt lat="47.02969" lon="-1.09325">
        <ele>109</ele>
        <time>2023-11-14T09:54:54Z</time>
      </trkpt>
      <trkpt lat="47.02986" lon="-1.09313">
        <ele>109</ele>
        <time>2023-11-14T09:55:19Z</time>
      </trkpt>
      <trkpt lat="47.03003" lon="-1.09305">
        <ele>109</ele>
        <time>2023-11-14T09:55:43Z</time>
      </trkpt>
      <trkpt lat="47.03021" lon="-1.09299">
        <ele>110</ele>
        <time>2023-11-14T09:56:08Z</time>
      </trkpt>
      <trkpt lat="47.03126" lon="-1.0925">
        <ele>114</ele>
        <time>2023-11-14T09:58:35Z</time>
      </trkpt>
      <trkpt lat="47.03144" lon="-1.09244">
        <ele>115</ele>
        <time>2023-11-14T09:59:00Z</time>
      </trkpt>
      <trkpt lat="47.03159" lon="-1.09228">
        <ele>115</ele>
        <time>2023-11-14T09:59:24Z</time>
      </trkpt>
      <trkpt lat="47.03176" lon="-1.09236">
        <ele>115</ele>
        <time>2023-11-14T09:59:48Z</time>
      </trkpt>
      <trkpt lat="47.0319" lon="-1.09255">
        <ele>115</ele>
        <time>2023-11-14T10:00:14Z</time>
      </trkpt>
      <trkpt lat="47.03208" lon="-1.09249">
        <ele>115</ele>
        <time>2023-11-14T10:00:38Z</time>
      </trkpt>
      <trkpt lat="47.03218" lon="-1.09226">
        <ele>115</ele>
        <time>2023-11-14T10:01:03Z</time>
      </trkpt>
      <trkpt lat="47.0322" lon="-1.09199">
        <ele>115</ele>
        <time>2023-11-14T10:01:28Z</time>
      </trkpt>
      <trkpt lat="47.03252" lon="-1.09134">
        <ele>115</ele>
        <time>2023-11-14T10:02:41Z</time>
      </trkpt>
      <trkpt lat="47.03262" lon="-1.09155">
        <ele>115</ele>
        <time>2023-11-14T10:03:04Z</time>
      </trkpt>
      <trkpt lat="47.03271" lon="-1.09208">
        <ele>115</ele>
        <time>2023-11-14T10:03:54Z</time>
      </trkpt>
      <trkpt lat="47.03273" lon="-1.09235">
        <ele>114</ele>
        <time>2023-11-14T10:04:18Z</time>
      </trkpt>
      <trkpt lat="47.03299" lon="-1.09308">
        <ele>114</ele>
        <time>2023-11-14T10:05:33Z</time>
      </trkpt>
      <trkpt lat="47.03317" lon="-1.09315">
        <ele>114</ele>
        <time>2023-11-14T10:05:58Z</time>
      </trkpt>
      <trkpt lat="47.03354" lon="-1.09254">
        <ele>115</ele>
        <time>2023-11-14T10:07:12Z</time>
      </trkpt>
      <trkpt lat="47.03395" lon="-1.09199">
        <ele>115</ele>
        <time>2023-11-14T10:08:27Z</time>
      </trkpt>
      <trkpt lat="47.03432" lon="-1.09137">
        <ele>116</ele>
        <time>2023-11-14T10:09:41Z</time>
      </trkpt>
      <trkpt lat="47.03484" lon="-1.09059">
        <ele>117</ele>
        <time>2023-11-14T10:11:21Z</time>
      </trkpt>
      <trkpt lat="47.03506" lon="-1.09016">
        <ele>117</ele>
        <time>2023-11-14T10:12:10Z</time>
      </trkpt>
      <trkpt lat="47.0352" lon="-1.08998">
        <ele>117</ele>
        <time>2023-11-14T10:12:34Z</time>
      </trkpt>
      <trkpt lat="47.03537" lon="-1.08984">
        <ele>116</ele>
        <time>2023-11-14T10:13:00Z</time>
      </trkpt>
      <trkpt lat="47.03555" lon="-1.08987">
        <ele>116</ele>
        <time>2023-11-14T10:13:25Z</time>
      </trkpt>
      <trkpt lat="47.03678" lon="-1.09061">
        <ele>116</ele>
        <time>2023-11-14T10:16:22Z</time>
      </trkpt>
      <trkpt lat="47.03732" lon="-1.09091">
        <ele>116</ele>
        <time>2023-11-14T10:17:39Z</time>
      </trkpt>
      <trkpt lat="47.03768" lon="-1.09108">
        <ele>116</ele>
        <time>2023-11-14T10:18:30Z</time>
      </trkpt>
      <trkpt lat="47.0386" lon="-1.09118">
        <ele>114</ele>
        <time>2023-11-14T10:20:33Z</time>
      </trkpt>
      <trkpt lat="47.03878" lon="-1.09122">
        <ele>113</ele>
        <time>2023-11-14T10:20:57Z</time>
      </trkpt>
      <trkpt lat="47.03889" lon="-1.09144">
        <ele>113</ele>
        <time>2023-11-14T10:21:22Z</time>
      </trkpt>
      <trkpt lat="47.03886" lon="-1.09201">
        <ele>114</ele>
        <time>2023-11-14T10:22:14Z</time>
      </trkpt>
      <trkpt lat="47.03889" lon="-1.09228">
        <ele>114</ele>
        <time>2023-11-14T10:22:39Z</time>
      </trkpt>
      <trkpt lat="47.03883" lon="-1.09254">
        <ele>115</ele>
        <time>2023-11-14T10:23:04Z</time>
      </trkpt>
      <trkpt lat="47.03879" lon="-1.09308">
        <ele>116</ele>
        <time>2023-11-14T10:23:53Z</time>
      </trkpt>
      <trkpt lat="47.03863" lon="-1.09326">
        <ele>116</ele>
        <time>2023-11-14T10:24:20Z</time>
      </trkpt>
      <trkpt lat="47.03798" lon="-1.09432">
        <ele>118</ele>
        <time>2023-11-14T10:26:30Z</time>
      </trkpt>
      <trkpt lat="47.03753" lon="-1.0949">
        <ele>119</ele>
        <time>2023-11-14T10:27:50Z</time>
      </trkpt>
      <trkpt lat="47.03714" lon="-1.09555">
        <ele>119</ele>
        <time>2023-11-14T10:29:08Z</time>
      </trkpt>
      <trkpt lat="47.03681" lon="-1.09604">
        <ele>119</ele>
        <time>2023-11-14T10:30:11Z</time>
      </trkpt>
      <trkpt lat="47.03625" lon="-1.09702">
        <ele>121</ele>
        <time>2023-11-14T10:32:07Z</time>
      </trkpt>
      <trkpt lat="47.03607" lon="-1.09738">
        <ele>121</ele>
        <time>2023-11-14T10:32:48Z</time>
      </trkpt>
      <trkpt lat="47.03558" lon="-1.0982">
        <ele>118</ele>
        <time>2023-11-14T10:34:27Z</time>
      </trkpt>
      <trkpt lat="47.03551" lon="-1.09845">
        <ele>117</ele>
        <time>2023-11-14T10:34:52Z</time>
      </trkpt>
      <trkpt lat="47.03548" lon="-1.09873">
        <ele>116</ele>
        <time>2023-11-14T10:35:17Z</time>
      </trkpt>
      <trkpt lat="47.03536" lon="-1.09929">
        <ele>115</ele>
        <time>2023-11-14T10:36:11Z</time>
      </trkpt>
      <trkpt lat="47.03526" lon="-1.10011">
        <ele>113</ele>
        <time>2023-11-14T10:37:27Z</time>
      </trkpt>
      <trkpt lat="47.03491" lon="-1.1014">
        <ele>108</ele>
        <time>2023-11-14T10:39:33Z</time>
      </trkpt>
      <trkpt lat="47.0347" lon="-1.10248">
        <ele>109</ele>
        <time>2023-11-14T10:41:15Z</time>
      </trkpt>
      <trkpt lat="47.0343" lon="-1.10307">
        <ele>109</ele>
        <time>2023-11-14T10:42:31Z</time>
      </trkpt>
      <trkpt lat="47.03421" lon="-1.1033">
        <ele>109</ele>
        <time>2023-11-14T10:42:55Z</time>
      </trkpt>
      <trkpt lat="47.03435" lon="-1.10381">
        <ele>109</ele>
        <time>2023-11-14T10:43:45Z</time>
      </trkpt>
      <trkpt lat="47.03452" lon="-1.1046">
        <ele>110</ele>
        <time>2023-11-14T10:45:00Z</time>
      </trkpt>
      <trkpt lat="47.0346" lon="-1.10485">
        <ele>110</ele>
        <time>2023-11-14T10:45:25Z</time>
      </trkpt>
      <trkpt lat="47.03479" lon="-1.10485">
        <ele>110</ele>
        <time>2023-11-14T10:45:51Z</time>
      </trkpt>
      <trkpt lat="47.03516" lon="-1.10475">
        <ele>111</ele>
        <time>2023-11-14T10:46:41Z</time>
      </trkpt>
      <trkpt lat="47.03534" lon="-1.10474">
        <ele>111</ele>
        <time>2023-11-14T10:47:05Z</time>
      </trkpt>
      <trkpt lat="47.03587" lon="-1.1045">
        <ele>111</ele>
        <time>2023-11-14T10:48:19Z</time>
      </trkpt>
      <trkpt lat="47.03619" lon="-1.1042">
        <ele>111</ele>
        <time>2023-11-14T10:49:10Z</time>
      </trkpt>
      <trkpt lat="47.03652" lon="-1.10395">
        <ele>110</ele>
        <time>2023-11-14T10:49:59Z</time>
      </trkpt>
      <trkpt lat="47.0367" lon="-1.10392">
        <ele>110</ele>
        <time>2023-11-14T10:50:23Z</time>
      </trkpt>
      <trkpt lat="47.03679" lon="-1.10416">
        <ele>110</ele>
        <time>2023-11-14T10:50:48Z</time>
      </trkpt>
      <trkpt lat="47.03695" lon="-1.10431">
        <ele>110</ele>
        <time>2023-11-14T10:51:14Z</time>
      </trkpt>
      <trkpt lat="47.03717" lon="-1.10425">
        <ele>109</ele>
        <time>2023-11-14T10:51:43Z</time>
      </trkpt>
      <trkpt lat="47.03735" lon="-1.10426">
        <ele>109</ele>
        <time>2023-11-14T10:52:07Z</time>
      </trkpt>
      <trkpt lat="47.03727" lon="-1.10402">
        <ele>109</ele>
        <time>2023-11-14T10:52:32Z</time>
      </trkpt>
      <trkpt lat="47.03738" lon="-1.10381">
        <ele>109</ele>
        <time>2023-11-14T10:52:56Z</time>
      </trkpt>
      <trkpt lat="47.03849" lon="-1.10356">
        <ele>109</ele>
        <time>2023-11-14T10:55:26Z</time>
      </trkpt>
      <trkpt lat="47.03904" lon="-1.10353">
        <ele>109</ele>
        <time>2023-11-14T10:56:39Z</time>
      </trkpt>
      <trkpt lat="47.03922" lon="-1.10347">
        <ele>109</ele>
        <time>2023-11-14T10:57:04Z</time>
      </trkpt>
      <trkpt lat="47.03993" lon="-1.10322">
        <ele>108</ele>
        <time>2023-11-14T10:58:41Z</time>
      </trkpt>
      <trkpt lat="47.0401" lon="-1.10312">
        <ele>108</ele>
        <time>2023-11-14T10:59:06Z</time>
      </trkpt>
      <trkpt lat="47.04033" lon="-1.10305">
        <ele>107</ele>
        <time>2023-11-14T10:59:37Z</time>
      </trkpt>
      <trkpt lat="47.04105" lon="-1.10274">
        <ele>106</ele>
        <time>2023-11-14T11:01:17Z</time>
      </trkpt>
      <trkpt lat="47.04124" lon="-1.10269">
        <ele>106</ele>
        <time>2023-11-14T11:01:43Z</time>
      </trkpt>
      <trkpt lat="47.04159" lon="-1.1025">
        <ele>105</ele>
        <time>2023-11-14T11:02:33Z</time>
      </trkpt>
      <trkpt lat="47.04177" lon="-1.10243">
        <ele>105</ele>
        <time>2023-11-14T11:02:58Z</time>
      </trkpt>
      <trkpt lat="47.04268" lon="-1.10216">
        <ele>103</ele>
        <time>2023-11-14T11:05:01Z</time>
      </trkpt>
      <trkpt lat="47.04302" lon="-1.102">
        <ele>103</ele>
        <time>2023-11-14T11:05:49Z</time>
      </trkpt>
      <trkpt lat="47.04319" lon="-1.10188">
        <ele>104</ele>
        <time>2023-11-14T11:06:14Z</time>
      </trkpt>
      <trkpt lat="47.04337" lon="-1.10181">
        <ele>104</ele>
        <time>2023-11-14T11:06:39Z</time>
      </trkpt>
      <trkpt lat="47.04355" lon="-1.1017">
        <ele>104</ele>
        <time>2023-11-14T11:07:05Z</time>
      </trkpt>
      <trkpt lat="47.04392" lon="-1.10158">
        <ele>103</ele>
        <time>2023-11-14T11:07:56Z</time>
      </trkpt>
      <trkpt lat="47.04443" lon="-1.10127">
        <ele>103</ele>
        <time>2023-11-14T11:09:09Z</time>
      </trkpt>
      <trkpt lat="47.04509" lon="-1.10077">
        <ele>104</ele>
        <time>2023-11-14T11:10:48Z</time>
      </trkpt>
      <trkpt lat="47.04561" lon="-1.10048">
        <ele>103</ele>
        <time>2023-11-14T11:12:03Z</time>
      </trkpt>
      <trkpt lat="47.04609" lon="-1.10009">
        <ele>103</ele>
        <time>2023-11-14T11:13:16Z</time>
      </trkpt>
      <trkpt lat="47.04627" lon="-1.10002">
        <ele>102</ele>
        <time>2023-11-14T11:13:41Z</time>
      </trkpt>
      <trkpt lat="47.04641" lon="-1.09985">
        <ele>102</ele>
        <time>2023-11-14T11:14:05Z</time>
      </trkpt>
      <trkpt lat="47.0466" lon="-1.09979">
        <ele>102</ele>
        <time>2023-11-14T11:14:31Z</time>
      </trkpt>
      <trkpt lat="47.04677" lon="-1.09968">
        <ele>102</ele>
        <time>2023-11-14T11:14:56Z</time>
      </trkpt>
      <trkpt lat="47.04741" lon="-1.09916">
        <ele>102</ele>
        <time>2023-11-14T11:16:33Z</time>
      </trkpt>
      <trkpt lat="47.04757" lon="-1.099">
        <ele>102</ele>
        <time>2023-11-14T11:16:59Z</time>
      </trkpt>
      <trkpt lat="47.04775" lon="-1.0989">
        <ele>103</ele>
        <time>2023-11-14T11:17:25Z</time>
      </trkpt>
      <trkpt lat="47.04794" lon="-1.09883">
        <ele>103</ele>
        <time>2023-11-14T11:17:51Z</time>
      </trkpt>
      <trkpt lat="47.04831" lon="-1.09873">
        <ele>103</ele>
        <time>2023-11-14T11:18:41Z</time>
      </trkpt>
      <trkpt lat="47.04847" lon="-1.09859">
        <ele>104</ele>
        <time>2023-11-14T11:19:06Z</time>
      </trkpt>
      <trkpt lat="47.04865" lon="-1.09857">
        <ele>104</ele>
        <time>2023-11-14T11:19:30Z</time>
      </trkpt>
      <trkpt lat="47.0491" lon="-1.09809">
        <ele>106</ele>
        <time>2023-11-14T11:20:44Z</time>
      </trkpt>
      <trkpt lat="47.04926" lon="-1.09796">
        <ele>106</ele>
        <time>2023-11-14T11:21:09Z</time>
      </trkpt>
      <trkpt lat="47.04935" lon="-1.0982">
        <ele>106</ele>
        <time>2023-11-14T11:21:34Z</time>
      </trkpt>
      <trkpt lat="47.04959" lon="-1.09862">
        <ele>104</ele>
        <time>2023-11-14T11:22:24Z</time>
      </trkpt>
      <trkpt lat="47.04977" lon="-1.09909">
        <ele>103</ele>
        <time>2023-11-14T11:23:13Z</time>
      </trkpt>
      <trkpt lat="47.05028" lon="-1.09988">
        <ele>101</ele>
        <time>2023-11-14T11:24:52Z</time>
      </trkpt>
      <trkpt lat="47.05077" lon="-1.10101">
        <ele>97</ele>
        <time>2023-11-14T11:26:53Z</time>
      </trkpt>
      <trkpt lat="47.05113" lon="-1.10161">
        <ele>97</ele>
        <time>2023-11-14T11:28:06Z</time>
      </trkpt>
      <trkpt lat="47.0514" lon="-1.10201">
        <ele>99</ele>
        <time>2023-11-14T11:28:57Z</time>
      </trkpt>
      <trkpt lat="47.05149" lon="-1.10224">
        <ele>99</ele>
        <time>2023-11-14T11:29:21Z</time>
      </trkpt>
      <trkpt lat="47.05173" lon="-1.10267">
        <ele>101</ele>
        <time>2023-11-14T11:30:12Z</time>
      </trkpt>
      <trkpt lat="47.05183" lon="-1.1029">
        <ele>101</ele>
        <time>2023-11-14T11:30:37Z</time>
      </trkpt>
      <trkpt lat="47.05166" lon="-1.10304">
        <ele>101</ele>
        <time>2023-11-14T11:31:03Z</time>
      </trkpt>
      <trkpt lat="47.05073" lon="-1.10327">
        <ele>100</ele>
        <time>2023-11-14T11:33:09Z</time>
      </trkpt>
      <trkpt lat="47.05036" lon="-1.10333">
        <ele>100</ele>
        <time>2023-11-14T11:33:58Z</time>
      </trkpt>
      <trkpt lat="47.0498" lon="-1.10336">
        <ele>100</ele>
        <time>2023-11-14T11:35:13Z</time>
      </trkpt>
      <trkpt lat="47.04888" lon="-1.10351">
        <ele>99</ele>
        <time>2023-11-14T11:37:17Z</time>
      </trkpt>
      <trkpt lat="47.04869" lon="-1.10357">
        <ele>99</ele>
        <time>2023-11-14T11:37:42Z</time>
      </trkpt>
      <trkpt lat="47.04853" lon="-1.10368">
        <ele>99</ele>
        <time>2023-11-14T11:38:06Z</time>
      </trkpt>
      <trkpt lat="47.04838" lon="-1.10383">
        <ele>98</ele>
        <time>2023-11-14T11:38:30Z</time>
      </trkpt>
      <trkpt lat="47.04793" lon="-1.10434">
        <ele>97</ele>
        <time>2023-11-14T11:39:46Z</time>
      </trkpt>
      <trkpt lat="47.04782" lon="-1.10455">
        <ele>98</ele>
        <time>2023-11-14T11:40:10Z</time>
      </trkpt>
      <trkpt lat="47.04778" lon="-1.10482">
        <ele>98</ele>
        <time>2023-11-14T11:40:35Z</time>
      </trkpt>
      <trkpt lat="47.04763" lon="-1.10532">
        <ele>99</ele>
        <time>2023-11-14T11:41:25Z</time>
      </trkpt>
      <trkpt lat="47.04753" lon="-1.10555">
        <ele>99</ele>
        <time>2023-11-14T11:41:50Z</time>
      </trkpt>
      <trkpt lat="47.0471" lon="-1.10706">
        <ele>97</ele>
        <time>2023-11-14T11:44:19Z</time>
      </trkpt>
      <trkpt lat="47.04706" lon="-1.10759">
        <ele>96</ele>
        <time>2023-11-14T11:45:07Z</time>
      </trkpt>
      <trkpt lat="47.04707" lon="-1.1084">
        <ele>97</ele>
        <time>2023-11-14T11:46:21Z</time>
      </trkpt>
      <trkpt lat="47.04705" lon="-1.10868">
        <ele>97</ele>
        <time>2023-11-14T11:46:46Z</time>
      </trkpt>
      <trkpt lat="47.04691" lon="-1.10945">
        <ele>96</ele>
        <time>2023-11-14T11:47:59Z</time>
      </trkpt>
      <trkpt lat="47.04688" lon="-1.10999">
        <ele>96</ele>
        <time>2023-11-14T11:48:48Z</time>
      </trkpt>
      <trkpt lat="47.04688" lon="-1.11054">
        <ele>97</ele>
        <time>2023-11-14T11:49:38Z</time>
      </trkpt>
      <trkpt lat="47.04672" lon="-1.11066">
        <ele>97</ele>
        <time>2023-11-14T11:50:02Z</time>
      </trkpt>
      <trkpt lat="47.04635" lon="-1.11056">
        <ele>95</ele>
        <time>2023-11-14T11:50:52Z</time>
      </trkpt>
      <trkpt lat="47.04602" lon="-1.11033">
        <ele>93</ele>
        <time>2023-11-14T11:51:41Z</time>
      </trkpt>
      <trkpt lat="47.04584" lon="-1.11025">
        <ele>92</ele>
        <time>2023-11-14T11:52:06Z</time>
      </trkpt>
      <trkpt lat="47.04538" lon="-1.10979">
        <ele>90</ele>
        <time>2023-11-14T11:53:20Z</time>
      </trkpt>
      <trkpt lat="47.0452" lon="-1.1098">
        <ele>90</ele>
        <time>2023-11-14T11:53:44Z</time>
      </trkpt>
      <trkpt lat="47.04503" lon="-1.10992">
        <ele>89</ele>
        <time>2023-11-14T11:54:10Z</time>
      </trkpt>
      <trkpt lat="47.04492" lon="-1.11012">
        <ele>89</ele>
        <time>2023-11-14T11:54:33Z</time>
      </trkpt>
      <trkpt lat="47.04473" lon="-1.11059">
        <ele>90</ele>
        <time>2023-11-14T11:55:23Z</time>
      </trkpt>
      <trkpt lat="47.04439" lon="-1.11126">
        <ele>89</ele>
        <time>2023-11-14T11:56:39Z</time>
      </trkpt>
      <trkpt lat="47.04422" lon="-1.11175">
        <ele>88</ele>
        <time>2023-11-14T11:57:29Z</time>
      </trkpt>
      <trkpt lat="47.04405" lon="-1.11189">
        <ele>88</ele>
        <time>2023-11-14T11:57:55Z</time>
      </trkpt>
      <trkpt lat="47.04362" lon="-1.11242">
        <ele>88</ele>
        <time>2023-11-14T11:59:10Z</time>
      </trkpt>
      <trkpt lat="47.04343" lon="-1.11251">
        <ele>88</ele>
        <time>2023-11-14T11:59:36Z</time>
      </trkpt>
      <trkpt lat="47.04328" lon="-1.11233">
        <ele>88</ele>
        <time>2023-11-14T12:00:02Z</time>
      </trkpt>
      <trkpt lat="47.0434" lon="-1.11213">
        <ele>88</ele>
        <time>2023-11-14T12:00:26Z</time>
      </trkpt>
      <trkpt lat="47.04337" lon="-1.11187">
        <ele>89</ele>
        <time>2023-11-14T12:00:50Z</time>
      </trkpt>
      <trkpt lat="47.04323" lon="-1.11168">
        <ele>89</ele>
        <time>2023-11-14T12:01:16Z</time>
      </trkpt>
      <trkpt lat="47.04326" lon="-1.11142">
        <ele>89</ele>
        <time>2023-11-14T12:01:40Z</time>
      </trkpt>
      <trkpt lat="47.04319" lon="-1.11116">
        <ele>90</ele>
        <time>2023-11-14T12:02:05Z</time>
      </trkpt>
      <trkpt lat="47.04307" lon="-1.11096">
        <ele>90</ele>
        <time>2023-11-14T12:02:29Z</time>
      </trkpt>
      <trkpt lat="47.04292" lon="-1.11079">
        <ele>91</ele>
        <time>2023-11-14T12:02:55Z</time>
      </trkpt>
      <trkpt lat="47.04275" lon="-1.1107">
        <ele>92</ele>
        <time>2023-11-14T12:03:19Z</time>
      </trkpt>
      <trkpt lat="47.0426" lon="-1.11055">
        <ele>93</ele>
        <time>2023-11-14T12:03:43Z</time>
      </trkpt>
      <trkpt lat="47.04247" lon="-1.11037">
        <ele>94</ele>
        <time>2023-11-14T12:04:07Z</time>
      </trkpt>
      <trkpt lat="47.04228" lon="-1.11038">
        <ele>95</ele>
        <time>2023-11-14T12:04:32Z</time>
      </trkpt>
      <trkpt lat="47.04214" lon="-1.11056">
        <ele>95</ele>
        <time>2023-11-14T12:04:57Z</time>
      </trkpt>
      <trkpt lat="47.04119" lon="-1.11221">
        <ele>96</ele>
        <time>2023-11-14T12:08:14Z</time>
      </trkpt>
      <trkpt lat="47.0408" lon="-1.11281">
        <ele>96</ele>
        <time>2023-11-14T12:09:29Z</time>
      </trkpt>
      <trkpt lat="47.04063" lon="-1.11328">
        <ele>96</ele>
        <time>2023-11-14T12:10:17Z</time>
      </trkpt>
      <trkpt lat="47.04038" lon="-1.11369">
        <ele>97</ele>
        <time>2023-11-14T12:11:07Z</time>
      </trkpt>
      <trkpt lat="47.04015" lon="-1.11413">
        <ele>97</ele>
        <time>2023-11-14T12:11:58Z</time>
      </trkpt>
      <trkpt lat="47.03973" lon="-1.11504">
        <ele>95</ele>
        <time>2023-11-14T12:13:38Z</time>
      </trkpt>
      <trkpt lat="47.03937" lon="-1.11567">
        <ele>96</ele>
        <time>2023-11-14T12:14:53Z</time>
      </trkpt>
      <trkpt lat="47.03924" lon="-1.11585">
        <ele>97</ele>
        <time>2023-11-14T12:15:16Z</time>
      </trkpt>
      <trkpt lat="47.03913" lon="-1.11608">
        <ele>97</ele>
        <time>2023-11-14T12:15:42Z</time>
      </trkpt>
      <trkpt lat="47.03905" lon="-1.11632">
        <ele>96</ele>
        <time>2023-11-14T12:16:06Z</time>
      </trkpt>
      <trkpt lat="47.03892" lon="-1.11653">
        <ele>96</ele>
        <time>2023-11-14T12:16:32Z</time>
      </trkpt>
      <trkpt lat="47.03878" lon="-1.1167">
        <ele>97</ele>
        <time>2023-11-14T12:16:56Z</time>
      </trkpt>
      <trkpt lat="47.03862" lon="-1.11682">
        <ele>97</ele>
        <time>2023-11-14T12:17:20Z</time>
      </trkpt>
      <trkpt lat="47.03826" lon="-1.11701">
        <ele>99</ele>
        <time>2023-11-14T12:18:11Z</time>
      </trkpt>
      <trkpt lat="47.03811" lon="-1.11719">
        <ele>100</ele>
        <time>2023-11-14T12:18:37Z</time>
      </trkpt>
      <trkpt lat="47.03792" lon="-1.11715">
        <ele>100</ele>
        <time>2023-11-14T12:19:03Z</time>
      </trkpt>
      <trkpt lat="47.03773" lon="-1.11719">
        <ele>101</ele>
        <time>2023-11-14T12:19:28Z</time>
      </trkpt>
      <trkpt lat="47.03756" lon="-1.11709">
        <ele>102</ele>
        <time>2023-11-14T12:19:53Z</time>
      </trkpt>
      <trkpt lat="47.03725" lon="-1.1168">
        <ele>102</ele>
        <time>2023-11-14T12:20:42Z</time>
      </trkpt>
    </trkseg>
  </trk>
</gpx>